Aeroporto :
LOGIN :

Iscrizione | Disclaimer

   EN    FR    IT 

 










Sommario :    VFR   VFR Marginale   IFR   IFR Intensivo   IFR Molto Intensivo
Visibilità : 
Base nubi : 
>= 8 km
>= 3000ft
5 / 8 km
1000 / 3000 ft
1500m / 5 km
500 / 1000 ft
800 / 1500m
200 / 500 ft
< 800m
< 200 ft
Simboli :   Temporali  Nebbia  Neve Forte  Precipitazioni Forti  Vento > 20 kt
SIGMETs :   Varie  Temporali  Ghiacco  Turbolenza  Onda orograficha  Ceneri Vulcaniche






- Altitudine del aeroporto : 1947 ft
- Codice IATA : OBF


EDMO - Oberpfaffenhofen

ULTIMO METAR :
  • 180120Z AUTO 16004KT 9999 // OVC100/// 10/08 Q1016

METARs OBSOLETI :
  • 180050Z AUTO 16005KT 9999 // FEW054/// BKN110/// BKN140/// 11/08 Q1016
  • 180020Z AUTO 15005KT 9999 // FEW058/// OVC110/// 11/07 Q1016
  • 172350Z AUTO 16004KT 9999 // BKN110/// OVC130/// 10/08 Q1017
  • 172320Z AUTO VRB01KT 9999 // OVC140/// 10/08 Q1016
  • 172250Z AUTO 21004KT 9999 // OVC130/// 10/08 Q1016

TAF TAF EDMO
Valido dal 17 a 18 ore il 18 a 03 ore UTC


171700Z 1718/1803 VRB03KT CAVOK



MetMap, La meteo Aeronautica in un colpo d'occhio ! - Copyright ORBIFLY Dicembre 2007 - Disclaimer

ORBIFLY MET'MAP TEAM :

Programmazione e sviluppo : Alexandra Zaïnal
Concezione e sviluppo : Baudouin d'Aumeries
Co-Programmazione e sviluppo : Marc-Olivier Méhu
Supporto tecnico e logistico : Manuel Goepfert
Aiuto per la traduzione : Arnaldo La Scala

Contatto : metmap@orbifly.com




FONTI E CREDITI :

   NOAA